createdAt,value
2022-12-06T00:00:51.402Z,21.95
2022-12-06T00:03:20.555Z,21.85
2022-12-06T00:05:48.344Z,19.38
2022-12-06T00:08:16.294Z,20.05
2022-12-06T00:10:44.058Z,27.40
2022-12-06T00:13:11.864Z,20.80
2022-12-06T00:15:39.568Z,19.75
2022-12-06T00:18:07.345Z,15.57
2022-12-06T00:20:36.491Z,19.25
2022-12-06T00:23:04.361Z,16.38
2022-12-06T00:25:32.917Z,12.82
2022-12-06T00:28:00.992Z,12.57
2022-12-06T00:30:29.156Z,17.08
2022-12-06T00:32:56.963Z,18.20
2022-12-06T00:35:24.719Z,14.77
2022-12-06T00:37:53.822Z,18.08
2022-12-06T00:40:21.654Z,16.40
2022-12-06T00:42:49.389Z,14.93
2022-12-06T00:45:17.268Z,17.42
2022-12-06T00:47:45.054Z,18.10
2022-12-06T00:50:13.271Z,18.58
2022-12-06T00:52:41.169Z,17.00
2022-12-06T00:55:10.612Z,21.23
2022-12-06T00:57:38.521Z,18.80
2022-12-06T01:00:07.758Z,18.38
2022-12-06T01:02:35.487Z,21.02
2022-12-06T01:05:03.415Z,25.40
2022-12-06T01:07:31.256Z,19.70
2022-12-06T01:09:59.275Z,19.48
2022-12-06T01:12:28.569Z,20.80
2022-12-06T01:14:56.284Z,17.73
2022-12-06T01:17:24.084Z,19.63
2022-12-06T01:19:51.896Z,18.10
2022-12-06T01:22:19.730Z,19.60
2022-12-06T01:24:48.218Z,16.83
2022-12-06T01:27:16.041Z,18.75
2022-12-06T01:29:45.263Z,19.83
2022-12-06T01:32:13.048Z,19.85
2022-12-06T01:34:41.095Z,17.70
2022-12-06T01:37:08.820Z,21.70
2022-12-06T01:39:36.584Z,26.00
2022-12-06T01:42:04.904Z,17.60
2022-12-06T01:44:41.424Z,22.30
2022-12-06T01:47:16.677Z,23.60
2022-12-06T01:49:47.037Z,18.65
2022-12-06T01:52:15.535Z,21.27
2022-12-06T01:54:43.495Z,20.20
2022-12-06T01:57:14.971Z,21.15
2022-12-06T01:59:43.305Z,25.10
2022-12-06T02:02:11.626Z,23.85
2022-12-06T02:04:41.507Z,20.63
2022-12-06T02:07:09.985Z,22.20
2022-12-06T02:09:39.127Z,26.15
2022-12-06T02:12:14.041Z,20.50
2022-12-06T02:14:44.018Z,19.80
2022-12-06T02:17:30.831Z,22.52
2022-12-06T02:20:13.577Z,19.75
2022-12-06T02:23:12.219Z,16.33
2022-12-06T02:26:12.407Z,21.25
2022-12-06T02:29:04.089Z,17.77
2022-12-06T02:31:38.294Z,15.85
2022-12-06T02:34:14.326Z,19.95
2022-12-06T02:36:48.638Z,19.48
2022-12-06T02:39:23.333Z,18.10
2022-12-06T02:41:57.608Z,16.15
2022-12-06T02:44:29.916Z,16.58
2022-12-06T02:47:01.031Z,18.02
2022-12-06T02:49:34.560Z,15.63
2022-12-06T02:52:03.706Z,18.87
2022-12-06T02:54:32.658Z,17.55
2022-12-06T02:57:00.376Z,19.10
2022-12-06T02:59:28.101Z,18.35
2022-12-06T03:02:01.315Z,19.33
2022-12-06T03:04:47.552Z,13.07
2022-12-06T03:07:27.659Z,16.15
2022-12-06T03:10:05.303Z,19.02
2022-12-06T03:12:44.798Z,19.08
2022-12-06T03:15:17.458Z,15.27
2022-12-06T03:17:52.541Z,20.92
2022-12-06T03:20:26.125Z,18.52
2022-12-06T03:22:59.344Z,17.50
2022-12-06T03:25:28.220Z,21.80
2022-12-06T03:27:57.876Z,19.77
2022-12-06T03:30:26.230Z,19.95
2022-12-06T03:32:55.461Z,23.90
2022-12-06T03:35:27.633Z,23.98
2022-12-06T03:38:00.033Z,19.50
2022-12-06T03:40:30.460Z,20.42
2022-12-06T03:42:58.940Z,23.42
2022-12-06T03:45:34.817Z,23.83
2022-12-06T03:48:11.171Z,20.33
2022-12-06T03:50:42.610Z,22.15
2022-12-06T03:53:10.913Z,15.80
2022-12-06T03:55:38.694Z,21.27
2022-12-06T03:58:06.429Z,19.45
2022-12-06T04:00:34.203Z,18.80
2022-12-06T04:03:01.889Z,18.45
2022-12-06T04:05:31.128Z,17.52
2022-12-06T04:07:58.946Z,16.88
2022-12-06T04:10:26.665Z,17.33
2022-12-06T04:13:02.334Z,15.23
2022-12-06T04:15:32.053Z,14.80
2022-12-06T04:18:11.186Z,14.23
2022-12-06T04:21:03.835Z,6.82
2022-12-06T04:23:33.640Z,10.27
2022-12-06T04:26:01.814Z,13.75
2022-12-06T04:28:47.185Z,16.98
2022-12-06T04:31:32.625Z,16.90
2022-12-06T04:34:17.998Z,16.67
2022-12-06T04:37:05.489Z,11.40
2022-12-06T04:39:33.975Z,14.10
2022-12-06T04:42:20.130Z,11.13
2022-12-06T04:44:47.929Z,12.77
2022-12-06T04:47:15.798Z,13.18
2022-12-06T04:49:43.621Z,13.80
2022-12-06T04:52:12.756Z,13.85
2022-12-06T04:54:40.829Z,12.40
2022-12-06T04:57:11.064Z,12.30
2022-12-06T04:59:39.696Z,13.40
2022-12-06T05:02:08.336Z,12.35
2022-12-06T05:04:36.110Z,9.57
2022-12-06T05:07:04.079Z,13.10
2022-12-06T05:09:33.150Z,17.67
2022-12-06T05:12:00.830Z,13.23
2022-12-06T05:14:28.573Z,15.80
2022-12-06T05:16:56.317Z,12.45
2022-12-06T05:19:24.203Z,13.18
2022-12-06T05:21:51.959Z,16.10
2022-12-06T05:24:19.721Z,13.68
2022-12-06T05:26:48.863Z,11.23
2022-12-06T05:29:16.856Z,10.23
2022-12-06T05:31:44.643Z,13.32
2022-12-06T05:34:12.422Z,11.55
2022-12-06T05:36:40.125Z,13.35
2022-12-06T05:39:07.884Z,12.55
2022-12-06T05:41:35.678Z,13.15
2022-12-06T05:44:04.821Z,10.13
2022-12-06T05:46:32.569Z,11.80
2022-12-06T05:49:00.443Z,9.73
2022-12-06T05:51:28.173Z,14.77
2022-12-06T05:53:55.928Z,2.30
2022-12-06T05:56:23.806Z,17.40
2022-12-06T05:58:51.470Z,9.57
2022-12-06T06:01:20.551Z,14.73
2022-12-06T06:03:48.600Z,11.73
2022-12-06T06:06:16.721Z,12.38
2022-12-06T06:08:44.530Z,13.82
2022-12-06T06:11:12.294Z,12.88
2022-12-06T06:13:40.028Z,10.00
2022-12-06T06:16:08.502Z,10.98
2022-12-06T06:18:37.929Z,14.73
2022-12-06T06:21:06.208Z,16.83
2022-12-06T06:23:34.191Z,12.10
2022-12-06T06:26:01.879Z,12.23
2022-12-06T06:28:29.611Z,11.45
2022-12-06T06:30:57.316Z,16.52
2022-12-06T06:33:24.996Z,19.63
2022-12-06T06:35:54.051Z,16.70
2022-12-06T06:38:21.713Z,18.45
2022-12-06T06:40:49.440Z,18.52
2022-12-06T06:43:20.251Z,15.88
2022-12-06T06:45:53.483Z,19.85
2022-12-06T06:48:21.836Z,16.88
2022-12-06T06:50:55.394Z,22.55
2022-12-06T06:53:27.758Z,24.30
2022-12-06T06:55:55.835Z,23.85
2022-12-06T06:58:23.845Z,19.65
2022-12-06T07:00:55.044Z,20.35
2022-12-06T07:03:24.191Z,18.70
2022-12-06T07:05:52.941Z,21.15
2022-12-06T07:08:20.925Z,18.70
2022-12-06T07:10:50.320Z,20.33
2022-12-06T07:13:18.396Z,20.50
2022-12-06T07:15:46.206Z,20.17
2022-12-06T07:18:14.017Z,17.48
2022-12-06T07:20:42.878Z,19.40
2022-12-06T07:23:10.689Z,19.67
2022-12-06T07:25:38.451Z,25.23
2022-12-06T07:28:07.976Z,19.30
2022-12-06T07:30:35.746Z,5.85
2022-12-06T07:33:03.516Z,17.95
2022-12-06T07:35:55.717Z,9.45
2022-12-06T07:38:19.233Z,15.93
2022-12-06T07:43:53.581Z,17.73
2022-12-06T07:46:21.396Z,17.38
2022-12-06T07:48:49.249Z,21.60
2022-12-06T07:51:16.967Z,8.77
2022-12-06T07:53:44.718Z,10.82
2022-12-06T07:56:12.483Z,13.32
2022-12-06T07:58:42.381Z,12.88
2022-12-06T08:01:10.335Z,10.23
2022-12-06T08:03:38.372Z,15.13
2022-12-06T08:06:06.731Z,6.07
2022-12-06T08:08:34.598Z,13.50
2022-12-06T08:11:03.693Z,23.65
2022-12-06T08:13:31.517Z,8.77
2022-12-06T08:16:00.705Z,9.75
2022-12-06T08:18:28.580Z,23.92
2022-12-06T08:20:56.422Z,11.13
2022-12-06T08:23:27.946Z,19.95
2022-12-06T08:25:59.274Z,24.10
2022-12-06T08:28:28.970Z,17.95
2022-12-06T08:31:02.699Z,15.77
2022-12-06T08:33:33.849Z,16.05
2022-12-06T08:36:01.827Z,19.83
2022-12-06T08:38:29.910Z,12.32
2022-12-06T08:40:57.674Z,11.65
2022-12-06T08:43:25.508Z,14.35
2022-12-06T08:45:53.975Z,19.27
2022-12-06T08:48:21.840Z,6.50
2022-12-06T08:50:51.048Z,18.77
2022-12-06T08:53:18.901Z,9.05
2022-12-06T08:56:02.023Z,13.77
2022-12-06T08:58:30.914Z,18.17
2022-12-06T09:00:58.783Z,10.23
2022-12-06T09:03:26.676Z,13.40
2022-12-06T09:05:55.806Z,16.45
2022-12-06T09:08:23.628Z,20.15
2022-12-06T09:10:51.536Z,21.00
2022-12-06T09:13:19.274Z,17.15
2022-12-06T09:15:47.131Z,11.80
2022-12-06T09:18:14.886Z,15.93
2022-12-06T09:20:43.176Z,20.50
2022-12-06T09:23:12.474Z,20.73
2022-12-06T09:25:42.051Z,9.25
2022-12-06T09:28:12.073Z,20.50
2022-12-06T09:30:40.008Z,29.00
2022-12-06T09:33:07.788Z,16.02
2022-12-06T09:35:36.396Z,23.73
2022-12-06T09:38:04.554Z,17.65
2022-12-06T09:40:42.539Z,16.35
2022-12-06T09:43:33.720Z,18.42
2022-12-06T09:46:15.898Z,25.58
2022-12-06T09:49:19.674Z,24.92
2022-12-06T09:52:03.826Z,10.23
2022-12-06T09:54:51.762Z,16.67
2022-12-06T09:57:30.021Z,15.32
2022-12-06T10:00:10.945Z,11.32
2022-12-06T10:02:59.348Z,11.07
2022-12-06T10:05:37.737Z,16.08
2022-12-06T10:08:19.744Z,14.73
2022-12-06T10:10:57.919Z,9.55
2022-12-06T10:13:45.676Z,8.13
2022-12-06T10:16:20.940Z,10.57
2022-12-06T10:19:04.680Z,9.95
2022-12-06T10:21:52.503Z,9.90
2022-12-06T10:24:33.762Z,11.52
2022-12-06T10:27:09.476Z,4.65
2022-12-06T10:29:51.703Z,4.90
2022-12-06T10:32:26.030Z,9.23
2022-12-06T10:34:57.147Z,8.65
2022-12-06T10:37:38.948Z,6.45
2022-12-06T10:40:14.657Z,6.30
2022-12-06T10:42:47.667Z,3.60
2022-12-06T10:45:42.219Z,6.55
2022-12-06T10:48:16.535Z,2.22
2022-12-06T10:50:47.922Z,7.28
2022-12-06T10:53:20.441Z,12.48
2022-12-06T10:55:53.990Z,5.75
2022-12-06T10:58:34.438Z,5.88
2022-12-06T11:01:09.080Z,10.80
2022-12-06T11:03:42.264Z,12.32
2022-12-06T11:06:16.290Z,15.00
2022-12-06T11:08:47.839Z,9.70
2022-12-06T11:11:18.627Z,11.18
2022-12-06T11:13:49.829Z,7.43
2022-12-06T11:16:23.516Z,10.15
2022-12-06T11:18:52.164Z,11.80
2022-12-06T11:21:29.274Z,8.10
2022-12-06T11:24:03.743Z,9.68
2022-12-06T11:26:37.584Z,6.88
2022-12-06T11:29:10.890Z,9.45
2022-12-06T11:31:45.550Z,4.63
2022-12-06T11:34:17.185Z,3.95
2022-12-06T11:36:46.040Z,10.25
2022-12-06T11:39:15.831Z,6.72
2022-12-06T11:41:46.618Z,7.15
2022-12-06T11:44:18.522Z,7.57
2022-12-06T11:46:57.059Z,5.90
2022-12-06T11:49:29.336Z,5.15
2022-12-06T11:52:00.736Z,9.30
2022-12-06T11:54:33.084Z,5.50
2022-12-06T11:57:16.725Z,6.90
2022-12-06T12:00:11.544Z,6.22
2022-12-06T12:02:48.435Z,5.75
2022-12-06T12:05:21.804Z,6.35
2022-12-06T12:07:53.261Z,7.15
2022-12-06T12:10:35.638Z,4.93
2022-12-06T12:13:40.863Z,4.70
2022-12-06T12:16:16.404Z,11.88
2022-12-06T12:18:57.468Z,6.15
2022-12-06T12:21:38.230Z,5.75
2022-12-06T12:24:08.020Z,6.97
2022-12-06T12:26:42.340Z,6.05
2022-12-06T12:31:54.669Z,5.30
2022-12-06T12:34:26.177Z,9.55
2022-12-06T12:36:56.415Z,5.78
2022-12-06T12:39:32.862Z,5.72
2022-12-06T12:42:02.307Z,4.40
2022-12-06T12:44:40.178Z,7.80
2022-12-06T12:47:18.672Z,10.60
2022-12-06T12:50:20.364Z,8.77
2022-12-06T12:52:48.885Z,6.85
2022-12-06T12:55:19.726Z,7.97
2022-12-06T12:57:49.203Z,11.77
2022-12-06T13:00:18.058Z,9.40
2022-12-06T13:02:49.291Z,8.38
2022-12-06T13:05:40.717Z,9.32
2022-12-06T13:08:16.372Z,8.50
2022-12-06T13:10:47.816Z,5.85
2022-12-06T13:13:19.925Z,6.93
2022-12-06T13:15:50.015Z,10.15
2022-12-06T13:18:22.669Z,7.93
2022-12-06T13:20:55.084Z,3.50
2022-12-06T13:23:26.518Z,7.57
2022-12-06T13:26:04.576Z,4.72
2022-12-06T13:28:40.554Z,8.02
2022-12-06T13:31:14.484Z,7.38
2022-12-06T13:33:49.483Z,9.45
2022-12-06T13:36:21.009Z,8.80
2022-12-06T13:38:49.020Z,5.40
2022-12-06T13:42:11.351Z,4.07
2022-12-06T13:44:43.748Z,5.88
2022-12-06T13:47:50.951Z,7.80
2022-12-06T13:50:54.257Z,8.25
2022-12-06T13:53:24.781Z,11.13
2022-12-06T13:56:02.319Z,9.95
2022-12-06T13:58:42.341Z,9.77
2022-12-06T14:01:40.935Z,9.57
2022-12-06T14:04:37.905Z,7.40
2022-12-06T14:09:41.737Z,10.77
2022-12-06T14:12:16.669Z,10.32
2022-12-06T14:14:44.565Z,9.32
2022-12-06T14:17:32.214Z,11.75
2022-12-06T14:20:04.702Z,11.73
2022-12-06T14:22:36.564Z,11.45
2022-12-06T14:25:08.216Z,10.50
2022-12-06T14:27:44.573Z,8.68
2022-12-06T14:30:25.164Z,9.38
2022-12-06T14:32:55.514Z,7.18
2022-12-06T14:35:24.867Z,11.02
2022-12-06T14:37:54.873Z,8.52
2022-12-06T14:40:45.709Z,6.82
2022-12-06T14:43:16.786Z,11.75
2022-12-06T14:45:46.637Z,10.05
2022-12-06T14:48:14.973Z,12.25
2022-12-06T14:50:44.688Z,10.50
2022-12-06T14:53:14.414Z,9.45
2022-12-06T14:55:56.264Z,9.93
2022-12-06T14:58:28.591Z,10.18
2022-12-06T15:01:00.205Z,4.43
2022-12-06T15:03:32.168Z,15.57
2022-12-06T15:06:18.693Z,16.35
2022-12-06T15:08:53.514Z,12.05
2022-12-06T15:11:49.990Z,10.85
2022-12-06T15:14:19.775Z,13.82
2022-12-06T15:16:58.344Z,16.40
2022-12-06T15:19:26.289Z,8.63
2022-12-06T15:21:54.446Z,13.57
2022-12-06T15:24:24.139Z,12.38
2022-12-06T15:26:54.343Z,11.85
2022-12-06T15:29:22.500Z,9.43
2022-12-06T15:31:52.466Z,11.02
2022-12-06T15:34:26.826Z,7.82
2022-12-06T15:39:43.256Z,9.18
2022-12-06T15:42:18.729Z,8.45
2022-12-06T15:44:49.576Z,12.43
2022-12-06T15:47:18.469Z,10.48
2022-12-06T15:49:46.519Z,11.05
2022-12-06T15:52:17.163Z,13.50
2022-12-06T15:54:45.336Z,12.88
2022-12-06T15:57:14.862Z,10.75
2022-12-06T15:59:42.694Z,10.88
2022-12-06T16:02:15.490Z,10.15
2022-12-06T16:04:43.608Z,2.22
2022-12-06T16:07:13.367Z,8.88
2022-12-06T16:09:41.268Z,12.55
2022-12-06T16:12:09.008Z,11.85
2022-12-06T16:14:38.107Z,11.00
2022-12-06T16:17:05.928Z,10.20
2022-12-06T16:19:47.759Z,11.80
2022-12-06T16:22:15.491Z,10.07
2022-12-06T16:24:42.301Z,10.45
2022-12-06T16:27:10.263Z,12.88
2022-12-06T16:29:39.417Z,12.43
2022-12-06T16:32:07.493Z,13.40
2022-12-06T16:34:35.313Z,14.57
2022-12-06T16:37:04.411Z,15.35
2022-12-06T16:39:34.651Z,12.38
2022-12-06T16:42:04.365Z,14.80
2022-12-06T16:44:32.481Z,15.35
2022-12-06T16:47:01.731Z,18.23
2022-12-06T16:49:48.380Z,13.32
2022-12-06T16:52:17.449Z,14.38
2022-12-06T16:54:45.273Z,15.77
2022-12-06T16:57:14.354Z,13.27
2022-12-06T16:59:43.176Z,15.15
2022-12-06T17:02:26.360Z,12.77
2022-12-06T17:04:54.916Z,9.57
2022-12-06T17:07:22.806Z,12.20
2022-12-06T17:09:50.655Z,11.27
2022-12-06T17:12:18.426Z,10.48
2022-12-06T17:14:46.423Z,10.98
2022-12-06T17:17:14.762Z,10.82
2022-12-06T17:19:44.461Z,8.50
2022-12-06T17:22:15.489Z,11.77
2022-12-06T17:24:43.739Z,8.68
2022-12-06T17:27:15.242Z,9.52
2022-12-06T17:29:43.596Z,9.80
2022-12-06T17:32:11.765Z,11.00
2022-12-06T17:34:39.536Z,10.40
2022-12-06T17:37:08.772Z,11.15
2022-12-06T17:39:37.185Z,8.98
2022-12-06T17:42:22.883Z,10.77
2022-12-06T17:44:50.998Z,13.13
2022-12-06T17:47:19.166Z,10.02
2022-12-06T17:49:46.895Z,2.42
2022-12-06T17:52:16.320Z,10.15
2022-12-06T17:54:44.103Z,7.70
2022-12-06T17:57:16.153Z,8.15
2022-12-06T17:59:44.367Z,10.98
2022-12-06T18:02:19.308Z,8.27
2022-12-06T18:04:48.706Z,7.18
2022-12-06T18:07:18.751Z,8.80
2022-12-06T18:09:46.922Z,8.95
2022-12-06T18:12:16.160Z,8.57
2022-12-06T18:14:43.976Z,6.65
2022-12-06T18:17:12.082Z,8.57
2022-12-06T18:19:40.743Z,10.07
2022-12-06T18:22:08.843Z,3.65
2022-12-06T18:24:37.962Z,7.88
2022-12-06T18:27:06.205Z,11.90
2022-12-06T18:29:34.785Z,5.88
2022-12-06T18:32:03.548Z,11.48
2022-12-06T18:34:31.831Z,12.52
2022-12-06T18:37:01.966Z,10.63
2022-12-06T18:39:29.776Z,12.50
2022-12-06T18:41:58.901Z,23.23
2022-12-06T18:44:26.631Z,12.48
2022-12-06T18:46:54.482Z,11.68
2022-12-06T18:49:22.274Z,12.52
2022-12-06T18:51:50.131Z,5.63
2022-12-06T18:54:17.855Z,8.20
2022-12-06T18:56:45.655Z,9.40
2022-12-06T18:59:14.719Z,9.02
2022-12-06T19:01:43.043Z,24.50
2022-12-06T19:04:14.703Z,13.98
2022-12-06T19:06:45.038Z,4.05
2022-12-06T19:09:15.285Z,4.85
2022-12-06T19:11:45.900Z,16.45
2022-12-06T19:14:16.322Z,15.25
2022-12-06T19:16:46.592Z,10.57
2022-12-06T19:19:17.214Z,16.45
2022-12-06T19:21:45.771Z,10.40
2022-12-06T19:24:15.497Z,8.00
2022-12-06T19:26:43.905Z,12.68
2022-12-06T19:29:11.692Z,15.23
2022-12-06T19:31:41.002Z,5.97
2022-12-06T19:34:16.732Z,7.03
2022-12-06T19:36:44.908Z,5.68
2022-12-06T19:39:14.428Z,2.20
2022-12-06T19:42:00.420Z,7.80
2022-12-06T19:44:29.248Z,4.78
2022-12-06T19:46:58.912Z,12.90
2022-12-06T19:49:27.906Z,7.47
2022-12-06T19:51:55.703Z,6.60
2022-12-06T19:54:25.412Z,11.40
2022-12-06T19:56:55.431Z,13.52
2022-12-06T19:59:24.522Z,11.32
2022-12-06T20:01:55.360Z,10.00
2022-12-06T20:04:26.191Z,10.23
2022-12-06T20:06:54.696Z,10.77
2022-12-06T20:09:26.896Z,5.38
2022-12-06T20:12:05.396Z,6.55
2022-12-06T20:14:39.740Z,8.80
2022-12-06T20:17:09.200Z,6.88
2022-12-06T20:19:38.832Z,6.45
2022-12-06T20:22:06.827Z,6.15
2022-12-06T20:24:34.715Z,8.27
2022-12-06T20:27:02.793Z,14.75
2022-12-06T20:29:33.251Z,14.15
2022-12-06T20:32:01.817Z,9.70
2022-12-06T20:34:35.215Z,17.77
2022-12-06T20:37:06.112Z,15.00
2022-12-06T20:39:35.283Z,10.88
2022-12-06T20:42:05.351Z,13.95
2022-12-06T20:44:33.339Z,11.93
2022-12-06T20:47:04.407Z,12.65
2022-12-06T20:49:32.277Z,15.98
2022-12-06T20:52:02.215Z,11.60
2022-12-06T20:54:31.590Z,17.63
2022-12-06T20:56:59.378Z,17.08
2022-12-06T20:59:29.179Z,24.63
2022-12-06T21:01:57.030Z,12.35
2022-12-06T21:04:25.935Z,12.07
2022-12-06T21:06:54.874Z,9.05
2022-12-06T21:09:25.527Z,4.75
2022-12-06T21:11:54.732Z,8.90
2022-12-06T21:14:22.538Z,9.55
2022-12-06T21:16:50.368Z,7.80
2022-12-06T21:19:20.470Z,9.52
2022-12-06T21:21:50.273Z,6.13
2022-12-06T21:24:20.639Z,11.35
2022-12-06T21:26:48.994Z,6.43
2022-12-06T21:29:21.707Z,5.25
2022-12-06T21:31:52.418Z,11.98
2022-12-06T21:34:20.165Z,6.13
2022-12-06T21:36:47.942Z,4.65
2022-12-06T21:39:16.033Z,7.80
2022-12-06T21:41:44.300Z,9.38
2022-12-06T21:44:12.101Z,18.27
2022-12-06T21:46:41.255Z,10.10
2022-12-06T21:49:10.572Z,11.00
2022-12-06T21:51:38.276Z,13.60
2022-12-06T21:54:06.034Z,9.02
2022-12-06T21:56:34.966Z,13.73
2022-12-06T21:59:02.756Z,16.20
2022-12-06T22:01:32.533Z,12.82
2022-12-06T22:04:04.573Z,12.80
2022-12-06T22:06:33.489Z,15.25
2022-12-06T22:09:03.183Z,15.77
2022-12-06T22:11:31.865Z,21.17
2022-12-06T22:14:00.784Z,15.82
2022-12-06T22:16:29.258Z,13.45
2022-12-06T22:18:57.828Z,15.57
2022-12-06T22:21:29.798Z,18.60
2022-12-06T22:23:58.534Z,18.33
2022-12-06T22:26:28.616Z,5.60
2022-12-06T22:28:56.940Z,10.95
2022-12-06T22:31:26.622Z,9.75
2022-12-06T22:33:54.584Z,14.90
2022-12-06T22:36:22.921Z,11.93
2022-12-06T22:38:53.210Z,14.43
2022-12-06T22:41:21.654Z,13.60
2022-12-06T22:43:52.034Z,11.27
2022-12-06T22:46:20.867Z,3.58
2022-12-06T22:48:49.139Z,7.88
2022-12-06T22:51:18.595Z,9.82
2022-12-06T22:53:47.793Z,6.80
2022-12-06T22:56:16.928Z,14.05
2022-12-06T22:58:44.743Z,9.70
2022-12-06T23:01:16.521Z,12.68
2022-12-06T23:03:45.317Z,11.45
2022-12-06T23:06:13.579Z,12.55
2022-12-06T23:08:41.436Z,10.88
2022-12-06T23:11:11.162Z,2.28
2022-12-06T23:13:40.723Z,14.23
2022-12-06T23:16:11.320Z,11.15
2022-12-06T23:18:39.686Z,18.40
2022-12-06T23:21:09.759Z,13.20
2022-12-06T23:23:38.685Z,7.35
2022-12-06T23:26:08.683Z,16.80
2022-12-06T23:28:37.068Z,16.30
2022-12-06T23:31:08.705Z,19.60
2022-12-06T23:33:36.535Z,10.13
2022-12-06T23:36:11.863Z,12.35
2022-12-06T23:38:39.943Z,12.55
2022-12-06T23:41:09.667Z,17.27
2022-12-06T23:43:38.678Z,16.42
2022-12-06T23:46:09.685Z,19.42
2022-12-06T23:48:37.821Z,17.42
2022-12-06T23:51:08.111Z,17.33
2022-12-06T23:53:36.299Z,17.40
2022-12-06T23:56:07.371Z,9.90
2022-12-06T23:58:35.773Z,17.77
